sensor_id;sensor_type;location;lat;lon;timestamp;P1;durP1;ratioP1;P2;durP2;ratioP2
9918;SDS011;4998;51.024;13.828;2023-05-16T00:01:34;5.90;;;5.40;;
9918;SDS011;4998;51.024;13.828;2023-05-16T00:04:02;6.03;;;5.50;;
9918;SDS011;4998;51.024;13.828;2023-05-16T00:06:30;6.10;;;5.60;;
9918;SDS011;4998;51.024;13.828;2023-05-16T00:08:57;5.97;;;5.47;;
9918;SDS011;4998;51.024;13.828;2023-05-16T00:11:25;6.97;;;6.33;;
9918;SDS011;4998;51.024;13.828;2023-05-16T00:13:52;6.77;;;6.07;;
9918;SDS011;4998;51.024;13.828;2023-05-16T00:16:19;8.37;;;6.03;;
9918;SDS011;4998;51.024;13.828;2023-05-16T00:18:46;6.37;;;5.80;;
9918;SDS011;4998;51.024;13.828;2023-05-16T00:21:13;8.37;;;5.87;;
9918;SDS011;4998;51.024;13.828;2023-05-16T00:23:42;8.40;;;5.70;;
9918;SDS011;4998;51.024;13.828;2023-05-16T00:26:09;6.73;;;5.17;;
9918;SDS011;4998;51.024;13.828;2023-05-16T00:28:36;5.80;;;5.20;;
9918;SDS011;4998;51.024;13.828;2023-05-16T00:31:03;6.70;;;5.30;;
9918;SDS011;4998;51.024;13.828;2023-05-16T00:33:30;6.37;;;5.80;;
9918;SDS011;4998;51.024;13.828;2023-05-16T00:35:57;6.37;;;5.73;;
9918;SDS011;4998;51.024;13.828;2023-05-16T00:38:24;6.03;;;5.53;;
9918;SDS011;4998;51.024;13.828;2023-05-16T00:40:53;5.60;;;5.20;;
9918;SDS011;4998;51.024;13.828;2023-05-16T00:43:20;6.70;;;6.20;;
9918;SDS011;4998;51.024;13.828;2023-05-16T00:45:47;6.60;;;6.00;;
9918;SDS011;4998;51.024;13.828;2023-05-16T00:48:14;6.73;;;5.90;;
9918;SDS011;4998;51.024;13.828;2023-05-16T00:50:41;7.10;;;6.40;;
9918;SDS011;4998;51.024;13.828;2023-05-16T00:53:09;6.20;;;5.60;;
9918;SDS011;4998;51.024;13.828;2023-05-16T00:55:36;6.53;;;5.93;;
9918;SDS011;4998;51.024;13.828;2023-05-16T00:58:05;6.60;;;5.47;;
9918;SDS011;4998;51.024;13.828;2023-05-16T01:00:32;6.53;;;5.93;;
9918;SDS011;4998;51.024;13.828;2023-05-16T01:03:00;6.50;;;6.00;;
9918;SDS011;4998;51.024;13.828;2023-05-16T01:05:27;6.33;;;5.73;;
9918;SDS011;4998;51.024;13.828;2023-05-16T01:07:55;6.70;;;5.80;;
9918;SDS011;4998;51.024;13.828;2023-05-16T01:10:22;6.60;;;6.10;;
9918;SDS011;4998;51.024;13.828;2023-05-16T01:12:52;6.70;;;6.00;;
9918;SDS011;4998;51.024;13.828;2023-05-16T01:15:28;6.57;;;5.87;;
9918;SDS011;4998;51.024;13.828;2023-05-16T01:17:59;6.70;;;6.10;;
9918;SDS011;4998;51.024;13.828;2023-05-16T01:20:32;12.70;;;6.53;;
9918;SDS011;4998;51.024;13.828;2023-05-16T01:23:05;10.47;;;5.50;;
9918;SDS011;4998;51.024;13.828;2023-05-16T01:28:37;6.50;;;5.90;;
9918;SDS011;4998;51.024;13.828;2023-05-16T01:31:04;6.13;;;5.53;;
9918;SDS011;4998;51.024;13.828;2023-05-16T01:33:31;7.57;;;6.30;;
9918;SDS011;4998;51.024;13.828;2023-05-16T01:35:59;6.57;;;5.87;;
9918;SDS011;4998;51.024;13.828;2023-05-16T01:38:36;7.00;;;5.87;;
9918;SDS011;4998;51.024;13.828;2023-05-16T01:41:08;6.00;;;5.50;;
9918;SDS011;4998;51.024;13.828;2023-05-16T01:43:44;6.87;;;6.27;;
9918;SDS011;4998;51.024;13.828;2023-05-16T01:46:14;6.67;;;5.83;;
9918;SDS011;4998;51.024;13.828;2023-05-16T01:48:49;7.13;;;6.50;;
9918;SDS011;4998;51.024;13.828;2023-05-16T01:51:20;6.70;;;6.00;;
9918;SDS011;4998;51.024;13.828;2023-05-16T01:53:48;6.47;;;5.87;;
9918;SDS011;4998;51.024;13.828;2023-05-16T01:56:17;7.83;;;6.17;;
9918;SDS011;4998;51.024;13.828;2023-05-16T01:58:47;8.97;;;6.60;;
9918;SDS011;4998;51.024;13.828;2023-05-16T02:01:15;7.27;;;6.60;;
9918;SDS011;4998;51.024;13.828;2023-05-16T02:03:42;6.63;;;6.03;;
9918;SDS011;4998;51.024;13.828;2023-05-16T02:06:09;6.40;;;5.80;;
9918;SDS011;4998;51.024;13.828;2023-05-16T02:08:36;6.63;;;5.90;;
9918;SDS011;4998;51.024;13.828;2023-05-16T02:11:03;6.90;;;6.30;;
9918;SDS011;4998;51.024;13.828;2023-05-16T02:13:31;6.90;;;6.20;;
9918;SDS011;4998;51.024;13.828;2023-05-16T02:15:58;7.17;;;6.57;;
9918;SDS011;4998;51.024;13.828;2023-05-16T02:18:25;7.10;;;6.40;;
9918;SDS011;4998;51.024;13.828;2023-05-16T02:20:52;7.77;;;6.97;;
9918;SDS011;4998;51.024;13.828;2023-05-16T02:23:19;7.30;;;6.70;;
9918;SDS011;4998;51.024;13.828;2023-05-16T02:25:46;6.80;;;6.20;;
9918;SDS011;4998;51.024;13.828;2023-05-16T02:28:13;7.13;;;6.47;;
9918;SDS011;4998;51.024;13.828;2023-05-16T02:30:42;8.37;;;7.03;;
9918;SDS011;4998;51.024;13.828;2023-05-16T02:33:09;7.73;;;7.03;;
9918;SDS011;4998;51.024;13.828;2023-05-16T02:35:36;6.63;;;6.13;;
9918;SDS011;4998;51.024;13.828;2023-05-16T02:38:03;7.77;;;6.97;;
9918;SDS011;4998;51.024;13.828;2023-05-16T02:40:30;6.83;;;6.13;;
9918;SDS011;4998;51.024;13.828;2023-05-16T02:42:57;7.00;;;6.40;;
9918;SDS011;4998;51.024;13.828;2023-05-16T02:45:24;7.53;;;6.57;;
9918;SDS011;4998;51.024;13.828;2023-05-16T02:47:53;7.17;;;6.57;;
9918;SDS011;4998;51.024;13.828;2023-05-16T02:50:20;7.13;;;6.47;;
9918;SDS011;4998;51.024;13.828;2023-05-16T02:52:47;7.80;;;7.10;;
9918;SDS011;4998;51.024;13.828;2023-05-16T02:55:15;8.37;;;7.07;;
9918;SDS011;4998;51.024;13.828;2023-05-16T02:57:42;7.57;;;6.87;;
9918;SDS011;4998;51.024;13.828;2023-05-16T03:00:09;7.70;;;6.90;;
9918;SDS011;4998;51.024;13.828;2023-05-16T03:02:37;7.77;;;6.97;;
9918;SDS011;4998;51.024;13.828;2023-05-16T03:05:06;7.03;;;6.33;;
9918;SDS011;4998;51.024;13.828;2023-05-16T03:07:34;7.60;;;6.93;;
9918;SDS011;4998;51.024;13.828;2023-05-16T03:10:01;8.27;;;7.37;;
9918;SDS011;4998;51.024;13.828;2023-05-16T03:12:28;10.63;;;7.40;;
9918;SDS011;4998;51.024;13.828;2023-05-16T03:14:55;8.23;;;7.47;;
9918;SDS011;4998;51.024;13.828;2023-05-16T03:17:22;7.77;;;7.07;;
9918;SDS011;4998;51.024;13.828;2023-05-16T03:19:49;7.43;;;6.83;;
9918;SDS011;4998;51.024;13.828;2023-05-16T03:22:18;7.83;;;7.13;;
9918;SDS011;4998;51.024;13.828;2023-05-16T03:24:45;8.50;;;7.60;;
9918;SDS011;4998;51.024;13.828;2023-05-16T03:27:12;7.80;;;7.10;;
9918;SDS011;4998;51.024;13.828;2023-05-16T03:29:39;7.80;;;7.10;;
9918;SDS011;4998;51.024;13.828;2023-05-16T03:32:06;8.07;;;7.37;;
9918;SDS011;4998;51.024;13.828;2023-05-16T03:34:33;9.30;;;8.50;;
9918;SDS011;4998;51.024;13.828;2023-05-16T03:37:00;9.97;;;8.30;;
9918;SDS011;4998;51.024;13.828;2023-05-16T03:39:29;9.50;;;8.60;;
9918;SDS011;4998;51.024;13.828;2023-05-16T03:41:56;11.83;;;8.50;;
9918;SDS011;4998;51.024;13.828;2023-05-16T03:44:23;9.03;;;8.10;;
9918;SDS011;4998;51.024;13.828;2023-05-16T03:46:50;8.83;;;8.00;;
9918;SDS011;4998;51.024;13.828;2023-05-16T03:49:19;9.77;;;8.67;;
9918;SDS011;4998;51.024;13.828;2023-05-16T03:51:49;9.17;;;8.27;;
9918;SDS011;4998;51.024;13.828;2023-05-16T03:54:16;8.97;;;8.10;;
9918;SDS011;4998;51.024;13.828;2023-05-16T03:56:44;8.50;;;7.80;;
9918;SDS011;4998;51.024;13.828;2023-05-16T03:59:11;8.37;;;7.67;;
9918;SDS011;4998;51.024;13.828;2023-05-16T04:01:38;9.60;;;8.60;;
9918;SDS011;4998;51.024;13.828;2023-05-16T04:04:05;8.87;;;8.07;;
9918;SDS011;4998;51.024;13.828;2023-05-16T04:06:32;9.33;;;8.53;;
9918;SDS011;4998;51.024;13.828;2023-05-16T04:08:59;9.27;;;8.47;;
9918;SDS011;4998;51.024;13.828;2023-05-16T04:11:26;11.23;;;8.30;;
9918;SDS011;4998;51.024;13.828;2023-05-16T04:13:55;9.33;;;8.40;;
9918;SDS011;4998;51.024;13.828;2023-05-16T04:16:22;9.50;;;8.50;;
9918;SDS011;4998;51.024;13.828;2023-05-16T04:18:49;11.63;;;8.20;;
9918;SDS011;4998;51.024;13.828;2023-05-16T04:21:16;8.47;;;7.53;;
9918;SDS011;4998;51.024;13.828;2023-05-16T04:23:43;9.10;;;8.30;;
9918;SDS011;4998;51.024;13.828;2023-05-16T04:26:10;9.47;;;8.57;;
9918;SDS011;4998;51.024;13.828;2023-05-16T04:28:37;9.63;;;8.47;;
9918;SDS011;4998;51.024;13.828;2023-05-16T04:31:05;8.73;;;7.93;;
9918;SDS011;4998;51.024;13.828;2023-05-16T04:33:32;9.80;;;8.80;;
9918;SDS011;4998;51.024;13.828;2023-05-16T04:35:59;8.73;;;7.90;;
9918;SDS011;4998;51.024;13.828;2023-05-16T04:38:28;8.77;;;7.97;;
9918;SDS011;4998;51.024;13.828;2023-05-16T04:40:55;8.90;;;8.00;;
9918;SDS011;4998;51.024;13.828;2023-05-16T04:43:22;9.70;;;8.43;;
9918;SDS011;4998;51.024;13.828;2023-05-16T04:45:50;9.73;;;8.77;;
9918;SDS011;4998;51.024;13.828;2023-05-16T04:48:19;9.47;;;7.93;;
9918;SDS011;4998;51.024;13.828;2023-05-16T04:50:46;9.97;;;8.97;;
9918;SDS011;4998;51.024;13.828;2023-05-16T04:53:13;9.47;;;8.57;;
9918;SDS011;4998;51.024;13.828;2023-05-16T04:55:40;9.17;;;8.37;;
9918;SDS011;4998;51.024;13.828;2023-05-16T04:58:08;9.70;;;8.80;;
9918;SDS011;4998;51.024;13.828;2023-05-16T05:00:35;9.83;;;8.93;;
9918;SDS011;4998;51.024;13.828;2023-05-16T05:03:02;14.50;;;9.63;;
9918;SDS011;4998;51.024;13.828;2023-05-16T05:05:31;9.97;;;9.00;;
9918;SDS011;4998;51.024;13.828;2023-05-16T05:07:58;9.47;;;8.67;;
9918;SDS011;4998;51.024;13.828;2023-05-16T05:10:25;10.60;;;9.33;;
9918;SDS011;4998;51.024;13.828;2023-05-16T05:12:52;11.13;;;8.80;;
9918;SDS011;4998;51.024;13.828;2023-05-16T05:15:20;9.90;;;8.97;;
9918;SDS011;4998;51.024;13.828;2023-05-16T05:17:47;8.87;;;8.00;;
9918;SDS011;4998;51.024;13.828;2023-05-16T05:20:14;9.80;;;8.90;;
9918;SDS011;4998;51.024;13.828;2023-05-16T05:22:42;11.03;;;9.87;;
9918;SDS011;4998;51.024;13.828;2023-05-16T05:25:09;10.40;;;9.20;;
9918;SDS011;4998;51.024;13.828;2023-05-16T05:27:36;9.47;;;8.60;;
9918;SDS011;4998;51.024;13.828;2023-05-16T05:30:04;11.23;;;9.80;;
9918;SDS011;4998;51.024;13.828;2023-05-16T05:32:31;11.07;;;9.93;;
9918;SDS011;4998;51.024;13.828;2023-05-16T05:34:59;10.87;;;9.77;;
9918;SDS011;4998;51.024;13.828;2023-05-16T05:37:25;11.90;;;10.10;;
9918;SDS011;4998;51.024;13.828;2023-05-16T05:39:54;11.70;;;10.60;;
9918;SDS011;4998;51.024;13.828;2023-05-16T05:42:21;13.00;;;10.10;;
9918;SDS011;4998;51.024;13.828;2023-05-16T05:44:48;12.00;;;10.40;;
9918;SDS011;4998;51.024;13.828;2023-05-16T05:47:15;10.57;;;9.47;;
9918;SDS011;4998;51.024;13.828;2023-05-16T05:49:42;11.83;;;10.63;;
9918;SDS011;4998;51.024;13.828;2023-05-16T05:52:09;12.90;;;11.70;;
9918;SDS011;4998;51.024;13.828;2023-05-16T05:54:36;12.77;;;11.50;;
9918;SDS011;4998;51.024;13.828;2023-05-16T05:57:05;14.20;;;11.23;;
9918;SDS011;4998;51.024;13.828;2023-05-16T05:59:32;13.03;;;11.73;;
9918;SDS011;4998;51.024;13.828;2023-05-16T06:01:59;12.63;;;11.30;;
9918;SDS011;4998;51.024;13.828;2023-05-16T06:04:26;13.37;;;12.10;;
9918;SDS011;4998;51.024;13.828;2023-05-16T06:06:53;15.33;;;12.40;;
9918;SDS011;4998;51.024;13.828;2023-05-16T06:09:20;17.37;;;12.90;;
9918;SDS011;4998;51.024;13.828;2023-05-16T06:11:48;14.00;;;12.40;;
9918;SDS011;4998;51.024;13.828;2023-05-16T06:14:16;14.30;;;12.37;;
9918;SDS011;4998;51.024;13.828;2023-05-16T06:16:43;13.47;;;11.97;;
9918;SDS011;4998;51.024;13.828;2023-05-16T06:19:10;15.53;;;12.33;;
9918;SDS011;4998;51.024;13.828;2023-05-16T06:21:40;15.20;;;13.27;;
9918;SDS011;4998;51.024;13.828;2023-05-16T06:24:07;14.90;;;13.50;;
9918;SDS011;4998;51.024;13.828;2023-05-16T06:26:35;16.93;;;14.50;;
9918;SDS011;4998;51.024;13.828;2023-05-16T06:29:02;14.57;;;13.07;;
9918;SDS011;4998;51.024;13.828;2023-05-16T06:31:30;14.83;;;13.37;;
9918;SDS011;4998;51.024;13.828;2023-05-16T06:33:57;15.77;;;14.00;;
9918;SDS011;4998;51.024;13.828;2023-05-16T06:36:25;15.93;;;14.30;;
9918;SDS011;4998;51.024;13.828;2023-05-16T06:38:52;17.93;;;14.50;;
9918;SDS011;4998;51.024;13.828;2023-05-16T06:41:19;17.03;;;15.27;;
9918;SDS011;4998;51.024;13.828;2023-05-16T06:43:46;20.53;;;18.43;;
9918;SDS011;4998;51.024;13.828;2023-05-16T06:46:13;21.37;;;19.10;;
9918;SDS011;4998;51.024;13.828;2023-05-16T06:48:41;20.97;;;18.70;;
9918;SDS011;4998;51.024;13.828;2023-05-16T06:51:08;21.60;;;19.33;;
9918;SDS011;4998;51.024;13.828;2023-05-16T06:53:36;25.23;;;19.70;;
9918;SDS011;4998;51.024;13.828;2023-05-16T06:56:03;23.17;;;20.67;;
9918;SDS011;4998;51.024;13.828;2023-05-16T06:58:30;24.33;;;21.63;;
9918;SDS011;4998;51.024;13.828;2023-05-16T07:00:57;23.97;;;21.37;;
9918;SDS011;4998;51.024;13.828;2023-05-16T07:03:24;23.10;;;19.97;;
9918;SDS011;4998;51.024;13.828;2023-05-16T07:05:53;25.00;;;22.30;;
9918;SDS011;4998;51.024;13.828;2023-05-16T07:08:21;24.17;;;21.57;;
9918;SDS011;4998;51.024;13.828;2023-05-16T07:10:48;28.00;;;22.87;;
9918;SDS011;4998;51.024;13.828;2023-05-16T07:13:15;23.60;;;21.00;;
9918;SDS011;4998;51.024;13.828;2023-05-16T07:15:42;24.87;;;20.13;;
9918;SDS011;4998;51.024;13.828;2023-05-16T07:18:09;23.20;;;20.47;;
9918;SDS011;4998;51.024;13.828;2023-05-16T07:20:36;23.87;;;20.00;;
9918;SDS011;4998;51.024;13.828;2023-05-16T07:23:04;22.70;;;19.10;;
9918;SDS011;4998;51.024;13.828;2023-05-16T07:25:32;20.57;;;18.47;;
9918;SDS011;4998;51.024;13.828;2023-05-16T07:27:59;19.03;;;16.10;;
9918;SDS011;4998;51.024;13.828;2023-05-16T07:30:26;18.47;;;16.67;;
9918;SDS011;4998;51.024;13.828;2023-05-16T07:32:53;17.13;;;15.37;;
9918;SDS011;4998;51.024;13.828;2023-05-16T07:35:20;21.70;;;14.60;;
9918;SDS011;4998;51.024;13.828;2023-05-16T07:37:47;16.50;;;13.27;;
9918;SDS011;4998;51.024;13.828;2023-05-16T07:40:16;14.37;;;12.87;;
9918;SDS011;4998;51.024;13.828;2023-05-16T07:42:45;15.57;;;12.30;;
9918;SDS011;4998;51.024;13.828;2023-05-16T07:45:12;15.60;;;13.73;;
9918;SDS011;4998;51.024;13.828;2023-05-16T07:47:39;14.37;;;12.87;;
9918;SDS011;4998;51.024;13.828;2023-05-16T07:50:07;16.40;;;14.00;;
9918;SDS011;4998;51.024;13.828;2023-05-16T07:52:34;14.50;;;12.63;;
9918;SDS011;4998;51.024;13.828;2023-05-16T07:55:01;15.73;;;12.47;;
9918;SDS011;4998;51.024;13.828;2023-05-16T07:57:29;14.03;;;12.33;;
9918;SDS011;4998;51.024;13.828;2023-05-16T07:59:57;12.37;;;11.10;;
9918;SDS011;4998;51.024;13.828;2023-05-16T08:02:24;13.43;;;11.83;;
9918;SDS011;4998;51.024;13.828;2023-05-16T08:04:54;13.10;;;11.37;;
9918;SDS011;4998;51.024;13.828;2023-05-16T08:07:21;15.63;;;11.53;;
9918;SDS011;4998;51.024;13.828;2023-05-16T08:09:49;11.27;;;10.17;;
9918;SDS011;4998;51.024;13.828;2023-05-16T08:12:16;11.80;;;10.50;;
9918;SDS011;4998;51.024;13.828;2023-05-16T08:14:44;11.33;;;10.20;;
9918;SDS011;4998;51.024;13.828;2023-05-16T08:17:11;13.83;;;10.87;;
9918;SDS011;4998;51.024;13.828;2023-05-16T08:19:38;12.40;;;10.87;;
9918;SDS011;4998;51.024;13.828;2023-05-16T08:22:06;10.83;;;9.47;;
9918;SDS011;4998;51.024;13.828;2023-05-16T08:24:34;11.40;;;9.77;;
9918;SDS011;4998;51.024;13.828;2023-05-16T08:27:01;12.87;;;10.63;;
9918;SDS011;4998;51.024;13.828;2023-05-16T08:29:28;11.03;;;9.80;;
9918;SDS011;4998;51.024;13.828;2023-05-16T08:31:57;11.80;;;9.07;;
9918;SDS011;4998;51.024;13.828;2023-05-16T08:34:24;11.97;;;8.60;;
9918;SDS011;4998;51.024;13.828;2023-05-16T08:36:51;9.30;;;8.03;;
9918;SDS011;4998;51.024;13.828;2023-05-16T08:39:18;9.90;;;8.83;;
9918;SDS011;4998;51.024;13.828;2023-05-16T08:41:45;9.10;;;8.03;;
9918;SDS011;4998;51.024;13.828;2023-05-16T08:44:12;11.03;;;9.60;;
9918;SDS011;4998;51.024;13.828;2023-05-16T08:46:45;10.27;;;8.70;;
9918;SDS011;4998;51.024;13.828;2023-05-16T08:49:18;8.73;;;7.83;;
9918;SDS011;4998;51.024;13.828;2023-05-16T08:51:45;9.70;;;8.40;;
9918;SDS011;4998;51.024;13.828;2023-05-16T08:54:14;9.47;;;8.57;;
9918;SDS011;4998;51.024;13.828;2023-05-16T08:56:42;9.53;;;8.53;;
9918;SDS011;4998;51.024;13.828;2023-05-16T08:59:10;9.00;;;8.10;;
9918;SDS011;4998;51.024;13.828;2023-05-16T09:01:37;8.47;;;7.77;;
9918;SDS011;4998;51.024;13.828;2023-05-16T09:04:05;9.03;;;8.03;;
9918;SDS011;4998;51.024;13.828;2023-05-16T09:06:35;8.70;;;7.90;;
9918;SDS011;4998;51.024;13.828;2023-05-16T09:09:02;8.83;;;7.93;;
9918;SDS011;4998;51.024;13.828;2023-05-16T09:11:32;8.40;;;7.10;;
9918;SDS011;4998;51.024;13.828;2023-05-16T09:13:59;7.87;;;7.10;;
9918;SDS011;4998;51.024;13.828;2023-05-16T09:16:26;10.53;;;7.50;;
9918;SDS011;4998;51.024;13.828;2023-05-16T09:18:54;9.00;;;8.10;;
9918;SDS011;4998;51.024;13.828;2023-05-16T09:21:25;9.20;;;7.80;;
9918;SDS011;4998;51.024;13.828;2023-05-16T09:23:54;7.53;;;6.80;;
9918;SDS011;4998;51.024;13.828;2023-05-16T09:26:22;8.77;;;7.23;;
9918;SDS011;4998;51.024;13.828;2023-05-16T09:28:52;9.90;;;7.00;;
9918;SDS011;4998;51.024;13.828;2023-05-16T09:31:19;10.37;;;6.70;;
9918;SDS011;4998;51.024;13.828;2023-05-16T09:33:47;7.93;;;7.10;;
9918;SDS011;4998;51.024;13.828;2023-05-16T09:36:15;7.97;;;6.87;;
9918;SDS011;4998;51.024;13.828;2023-05-16T09:38:42;6.77;;;6.07;;
9918;SDS011;4998;51.024;13.828;2023-05-16T09:41:11;7.10;;;6.50;;
9918;SDS011;4998;51.024;13.828;2023-05-16T09:43:39;8.07;;;6.80;;
9918;SDS011;4998;51.024;13.828;2023-05-16T09:46:07;6.57;;;5.97;;
9918;SDS011;4998;51.024;13.828;2023-05-16T09:48:35;7.77;;;7.03;;
9918;SDS011;4998;51.024;13.828;2023-05-16T09:51:05;8.27;;;7.30;;
9918;SDS011;4998;51.024;13.828;2023-05-16T09:53:32;8.47;;;6.77;;
9918;SDS011;4998;51.024;13.828;2023-05-16T09:56:00;7.60;;;6.90;;
9918;SDS011;4998;51.024;13.828;2023-05-16T09:58:30;8.80;;;6.77;;
9918;SDS011;4998;51.024;13.828;2023-05-16T10:00:58;10.70;;;7.00;;
9918;SDS011;4998;51.024;13.828;2023-05-16T10:03:27;8.00;;;6.27;;
9918;SDS011;4998;51.024;13.828;2023-05-16T10:05:54;11.87;;;7.27;;
9918;SDS011;4998;51.024;13.828;2023-05-16T10:08:22;8.17;;;7.37;;
9918;SDS011;4998;51.024;13.828;2023-05-16T10:10:51;7.93;;;6.57;;
9918;SDS011;4998;51.024;13.828;2023-05-16T10:13:19;8.90;;;6.50;;
9918;SDS011;4998;51.024;13.828;2023-05-16T10:15:49;7.50;;;6.67;;
9918;SDS011;4998;51.024;13.828;2023-05-16T10:18:20;8.77;;;6.80;;
9918;SDS011;4998;51.024;13.828;2023-05-16T10:20:48;7.70;;;6.90;;
9918;SDS011;4998;51.024;13.828;2023-05-16T10:23:19;8.60;;;6.30;;
9918;SDS011;4998;51.024;13.828;2023-05-16T10:25:47;6.83;;;6.13;;
9918;SDS011;4998;51.024;13.828;2023-05-16T10:28:14;6.53;;;5.93;;
9918;SDS011;4998;51.024;13.828;2023-05-16T10:30:42;7.07;;;6.30;;
9918;SDS011;4998;51.024;13.828;2023-05-16T10:33:12;6.60;;;5.63;;
9918;SDS011;4998;51.024;13.828;2023-05-16T10:35:40;7.37;;;6.20;;
9918;SDS011;4998;51.024;13.828;2023-05-16T10:38:08;9.00;;;6.10;;
9918;SDS011;4998;51.024;13.828;2023-05-16T10:40:37;6.70;;;6.00;;
9918;SDS011;4998;51.024;13.828;2023-05-16T10:43:05;11.07;;;5.90;;
9918;SDS011;4998;51.024;13.828;2023-05-16T10:45:33;9.03;;;6.00;;
9918;SDS011;4998;51.024;13.828;2023-05-16T10:48:04;7.17;;;6.47;;
9918;SDS011;4998;51.024;13.828;2023-05-16T10:50:36;7.67;;;6.70;;
9918;SDS011;4998;51.024;13.828;2023-05-16T10:53:13;9.83;;;6.20;;
9918;SDS011;4998;51.024;13.828;2023-05-16T10:58:44;6.30;;;5.70;;
9918;SDS011;4998;51.024;13.828;2023-05-16T11:01:16;7.00;;;6.30;;
9918;SDS011;4998;51.024;13.828;2023-05-16T11:04:03;6.43;;;5.73;;
9918;SDS011;4998;51.024;13.828;2023-05-16T11:06:34;6.90;;;6.20;;
9918;SDS011;4998;51.024;13.828;2023-05-16T11:09:17;5.90;;;5.40;;
9918;SDS011;4998;51.024;13.828;2023-05-16T11:11:55;6.30;;;5.40;;
9918;SDS011;4998;51.024;13.828;2023-05-16T11:14:24;5.87;;;5.27;;
9918;SDS011;4998;51.024;13.828;2023-05-16T11:16:58;5.20;;;4.60;;
9918;SDS011;4998;51.024;13.828;2023-05-16T11:19:31;8.00;;;5.23;;
9918;SDS011;4998;51.024;13.828;2023-05-16T11:22:10;5.23;;;4.50;;
9918;SDS011;4998;51.024;13.828;2023-05-16T11:24:48;5.10;;;4.50;;
9918;SDS011;4998;51.024;13.828;2023-05-16T11:27:20;5.10;;;4.50;;
9918;SDS011;4998;51.024;13.828;2023-05-16T11:29:49;10.53;;;5.17;;
9918;SDS011;4998;51.024;13.828;2023-05-16T11:32:20;5.53;;;4.97;;
9918;SDS011;4998;51.024;13.828;2023-05-16T11:34:48;4.43;;;4.03;;
9918;SDS011;4998;51.024;13.828;2023-05-16T11:37:18;5.07;;;4.60;;
9918;SDS011;4998;51.024;13.828;2023-05-16T11:39:46;6.30;;;5.13;;
9918;SDS011;4998;51.024;13.828;2023-05-16T11:42:14;4.60;;;4.20;;
9918;SDS011;4998;51.024;13.828;2023-05-16T11:44:42;4.40;;;4.00;;
9918;SDS011;4998;51.024;13.828;2023-05-16T11:47:09;6.60;;;4.10;;
9918;SDS011;4998;51.024;13.828;2023-05-16T11:49:36;4.17;;;3.87;;
9918;SDS011;4998;51.024;13.828;2023-05-16T11:52:03;4.63;;;4.23;;
9918;SDS011;4998;51.024;13.828;2023-05-16T11:54:32;6.37;;;4.43;;
9918;SDS011;4998;51.024;13.828;2023-05-16T11:57:00;5.07;;;4.00;;
9918;SDS011;4998;51.024;13.828;2023-05-16T11:59:27;4.80;;;3.83;;
9918;SDS011;4998;51.024;13.828;2023-05-16T12:01:55;6.60;;;4.30;;
9918;SDS011;4998;51.024;13.828;2023-05-16T12:04:22;5.47;;;3.67;;
9918;SDS011;4998;51.024;13.828;2023-05-16T12:06:59;5.70;;;3.57;;
9918;SDS011;4998;51.024;13.828;2023-05-16T12:09:26;5.77;;;4.00;;
9918;SDS011;4998;51.024;13.828;2023-05-16T12:11:55;4.30;;;3.90;;
9918;SDS011;4998;51.024;13.828;2023-05-16T12:14:22;4.30;;;3.70;;
9918;SDS011;4998;51.024;13.828;2023-05-16T12:16:50;4.90;;;4.07;;
9918;SDS011;4998;51.024;13.828;2023-05-16T12:19:18;4.00;;;3.60;;
9918;SDS011;4998;51.024;13.828;2023-05-16T12:21:46;14.53;;;3.60;;
9918;SDS011;4998;51.024;13.828;2023-05-16T12:24:17;4.43;;;4.10;;
9918;SDS011;4998;51.024;13.828;2023-05-16T12:26:44;3.43;;;3.23;;
9918;SDS011;4998;51.024;13.828;2023-05-16T12:29:12;4.10;;;3.60;;
9918;SDS011;4998;51.024;13.828;2023-05-16T12:31:39;4.70;;;3.63;;
9918;SDS011;4998;51.024;13.828;2023-05-16T12:34:16;4.60;;;4.20;;
9918;SDS011;4998;51.024;13.828;2023-05-16T12:36:46;4.17;;;3.73;;
9918;SDS011;4998;51.024;13.828;2023-05-16T12:39:16;5.20;;;3.30;;
9918;SDS011;4998;51.024;13.828;2023-05-16T12:41:43;3.23;;;2.93;;
9918;SDS011;4998;51.024;13.828;2023-05-16T12:44:12;3.73;;;3.10;;
9918;SDS011;4998;51.024;13.828;2023-05-16T12:46:42;3.40;;;3.20;;
9918;SDS011;4998;51.024;13.828;2023-05-16T12:49:10;3.40;;;3.10;;
9918;SDS011;4998;51.024;13.828;2023-05-16T12:51:37;3.23;;;2.93;;
9918;SDS011;4998;51.024;13.828;2023-05-16T12:54:08;3.00;;;2.80;;
9918;SDS011;4998;51.024;13.828;2023-05-16T12:56:36;5.93;;;3.00;;
9918;SDS011;4998;51.024;13.828;2023-05-16T12:59:04;3.43;;;3.13;;
9918;SDS011;4998;51.024;13.828;2023-05-16T13:01:33;3.57;;;3.20;;
9918;SDS011;4998;51.024;13.828;2023-05-16T13:04:00;3.43;;;3.13;;
9918;SDS011;4998;51.024;13.828;2023-05-16T13:06:28;4.30;;;3.03;;
9918;SDS011;4998;51.024;13.828;2023-05-16T13:08:55;3.50;;;3.20;;
9918;SDS011;4998;51.024;13.828;2023-05-16T13:11:22;3.50;;;3.20;;
9918;SDS011;4998;51.024;13.828;2023-05-16T13:13:50;3.40;;;3.10;;
9918;SDS011;4998;51.024;13.828;2023-05-16T13:16:17;4.77;;;3.10;;
9918;SDS011;4998;51.024;13.828;2023-05-16T13:18:45;3.27;;;3.03;;
9918;SDS011;4998;51.024;13.828;2023-05-16T13:21:12;3.93;;;2.93;;
9918;SDS011;4998;51.024;13.828;2023-05-16T13:23:40;3.53;;;3.23;;
9918;SDS011;4998;51.024;13.828;2023-05-16T13:26:07;3.13;;;2.77;;
9918;SDS011;4998;51.024;13.828;2023-05-16T13:28:34;3.17;;;2.93;;
9918;SDS011;4998;51.024;13.828;2023-05-16T13:31:02;3.30;;;2.87;;
9918;SDS011;4998;51.024;13.828;2023-05-16T13:33:29;3.40;;;3.20;;
9918;SDS011;4998;51.024;13.828;2023-05-16T13:35:58;3.80;;;3.33;;
9918;SDS011;4998;51.024;13.828;2023-05-16T13:38:25;3.17;;;2.93;;
9918;SDS011;4998;51.024;13.828;2023-05-16T13:40:52;3.40;;;3.10;;
9918;SDS011;4998;51.024;13.828;2023-05-16T13:43:19;5.10;;;3.00;;
9918;SDS011;4998;51.024;13.828;2023-05-16T13:45:46;4.47;;;3.70;;
9918;SDS011;4998;51.024;13.828;2023-05-16T13:48:13;4.13;;;3.73;;
9918;SDS011;4998;51.024;13.828;2023-05-16T13:50:40;3.00;;;2.80;;
9918;SDS011;4998;51.024;13.828;2023-05-16T13:53:08;3.57;;;3.20;;
9918;SDS011;4998;51.024;13.828;2023-05-16T13:55:35;2.90;;;2.60;;
9918;SDS011;4998;51.024;13.828;2023-05-16T13:58:02;3.23;;;3.00;;
9918;SDS011;4998;51.024;13.828;2023-05-16T14:00:29;3.30;;;3.00;;
9918;SDS011;4998;51.024;13.828;2023-05-16T14:02:56;3.10;;;2.53;;
9918;SDS011;4998;51.024;13.828;2023-05-16T14:05:23;2.90;;;2.70;;
9918;SDS011;4998;51.024;13.828;2023-05-16T14:07:51;2.63;;;2.37;;
9918;SDS011;4998;51.024;13.828;2023-05-16T14:10:19;3.80;;;3.00;;
9918;SDS011;4998;51.024;13.828;2023-05-16T14:12:46;2.90;;;2.47;;
9918;SDS011;4998;51.024;13.828;2023-05-16T14:15:14;2.67;;;2.47;;
9918;SDS011;4998;51.024;13.828;2023-05-16T14:17:41;2.80;;;2.50;;
9918;SDS011;4998;51.024;13.828;2023-05-16T14:20:08;9.20;;;2.73;;
9918;SDS011;4998;51.024;13.828;2023-05-16T14:22:36;3.40;;;3.07;;
9918;SDS011;4998;51.024;13.828;2023-05-16T14:25:04;3.17;;;2.63;;
9918;SDS011;4998;51.024;13.828;2023-05-16T14:27:33;2.93;;;2.63;;
9918;SDS011;4998;51.024;13.828;2023-05-16T14:30:00;2.30;;;2.10;;
9918;SDS011;4998;51.024;13.828;2023-05-16T14:32:27;2.43;;;2.23;;
9918;SDS011;4998;51.024;13.828;2023-05-16T14:34:54;2.10;;;2.00;;
9918;SDS011;4998;51.024;13.828;2023-05-16T14:37:21;2.77;;;2.20;;
9918;SDS011;4998;51.024;13.828;2023-05-16T14:39:48;2.30;;;2.10;;
9918;SDS011;4998;51.024;13.828;2023-05-16T14:42:17;3.20;;;2.33;;
9918;SDS011;4998;51.024;13.828;2023-05-16T14:44:45;2.50;;;2.27;;
9918;SDS011;4998;51.024;13.828;2023-05-16T14:47:12;3.30;;;2.20;;
9918;SDS011;4998;51.024;13.828;2023-05-16T14:49:39;3.57;;;2.60;;
9918;SDS011;4998;51.024;13.828;2023-05-16T14:52:06;2.23;;;2.10;;
9918;SDS011;4998;51.024;13.828;2023-05-16T14:54:33;2.93;;;1.80;;
9918;SDS011;4998;51.024;13.828;2023-05-16T14:57:00;2.77;;;2.40;;
9918;SDS011;4998;51.024;13.828;2023-05-16T14:59:29;3.50;;;2.30;;
9918;SDS011;4998;51.024;13.828;2023-05-16T15:01:58;4.20;;;2.33;;
9918;SDS011;4998;51.024;13.828;2023-05-16T15:04:25;5.53;;;2.53;;
9918;SDS011;4998;51.024;13.828;2023-05-16T15:06:53;2.97;;;2.07;;